sensor_id;sensor_type;location;lat;lon;timestamp;P1;durP1;ratioP1;P2;durP2;ratioP2
72422;SDS011;60413;55.658;37.498;2023-02-26T00:01:51;33.08;;;13.43;;
72422;SDS011;60413;55.658;37.498;2023-02-26T00:04:25;33.95;;;14.75;;
72422;SDS011;60413;55.658;37.498;2023-02-26T00:06:53;38.15;;;14.23;;
72422;SDS011;60413;55.658;37.498;2023-02-26T00:09:20;36.40;;;14.68;;
72422;SDS011;60413;55.658;37.498;2023-02-26T00:11:47;46.35;;;14.65;;
72422;SDS011;60413;55.658;37.498;2023-02-26T00:14:14;32.92;;;12.60;;
72422;SDS011;60413;55.658;37.498;2023-02-26T00:16:41;40.35;;;13.73;;
72422;SDS011;60413;55.658;37.498;2023-02-26T00:19:14;32.38;;;12.55;;
72422;SDS011;60413;55.658;37.498;2023-02-26T00:21:40;25.35;;;11.93;;
72422;SDS011;60413;55.658;37.498;2023-02-26T00:24:06;21.40;;;8.85;;
72422;SDS011;60413;55.658;37.498;2023-02-26T00:26:35;19.90;;;7.72;;
72422;SDS011;60413;55.658;37.498;2023-02-26T00:29:01;23.55;;;10.43;;
72422;SDS011;60413;55.658;37.498;2023-02-26T00:31:31;25.23;;;8.75;;
72422;SDS011;60413;55.658;37.498;2023-02-26T00:34:09;20.80;;;8.52;;
72422;SDS011;60413;55.658;37.498;2023-02-26T00:39:34;17.90;;;7.85;;
72422;SDS011;60413;55.658;37.498;2023-02-26T00:42:07;21.30;;;8.25;;
72422;SDS011;60413;55.658;37.498;2023-02-26T00:44:42;19.50;;;7.65;;
72422;SDS011;60413;55.658;37.498;2023-02-26T00:47:19;19.23;;;7.50;;
72422;SDS011;60413;55.658;37.498;2023-02-26T00:50:07;23.08;;;8.90;;
72422;SDS011;60413;55.658;37.498;2023-02-26T00:55:16;16.92;;;6.72;;
72422;SDS011;60413;55.658;37.498;2023-02-26T00:57:44;15.40;;;7.10;;
72422;SDS011;60413;55.658;37.498;2023-02-26T01:00:10;15.93;;;5.82;;
72422;SDS011;60413;55.658;37.498;2023-02-26T01:02:37;17.08;;;6.82;;
72422;SDS011;60413;55.658;37.498;2023-02-26T01:05:04;20.13;;;7.35;;
72422;SDS011;60413;55.658;37.498;2023-02-26T01:07:43;11.93;;;4.97;;
72422;SDS011;60413;55.658;37.498;2023-02-26T01:10:28;17.88;;;6.97;;
72422;SDS011;60413;55.658;37.498;2023-02-26T01:12:57;13.00;;;5.68;;
72422;SDS011;60413;55.658;37.498;2023-02-26T01:15:23;11.20;;;5.03;;
72422;SDS011;60413;55.658;37.498;2023-02-26T01:17:55;16.35;;;5.97;;
72422;SDS011;60413;55.658;37.498;2023-02-26T01:21:46;18.20;;;6.90;;
72422;SDS011;60413;55.658;37.498;2023-02-26T01:24:16;12.18;;;5.20;;
72422;SDS011;60413;55.658;37.498;2023-02-26T01:41:23;7.40;;;3.45;;
72422;SDS011;60413;55.658;37.498;2023-02-26T01:44:54;8.45;;;3.95;;
72422;SDS011;60413;55.658;37.498;2023-02-26T01:55:29;5.88;;;2.95;;
72422;SDS011;60413;55.658;37.498;2023-02-26T01:57:56;12.18;;;4.78;;
72422;SDS011;60413;55.658;37.498;2023-02-26T02:00:25;11.55;;;4.32;;
72422;SDS011;60413;55.658;37.498;2023-02-26T02:02:52;8.68;;;4.05;;
72422;SDS011;60413;55.658;37.498;2023-02-26T02:05:24;6.13;;;3.53;;
72422;SDS011;60413;55.658;37.498;2023-02-26T02:11:17;10.15;;;4.47;;
72422;SDS011;60413;55.658;37.498;2023-02-26T02:46:43;4.03;;;2.10;;
72422;SDS011;60413;55.658;37.498;2023-02-26T02:49:38;4.88;;;2.42;;
72422;SDS011;60413;55.658;37.498;2023-02-26T02:52:09;4.72;;;2.33;;
72422;SDS011;60413;55.658;37.498;2023-02-26T02:54:49;7.47;;;2.17;;
72422;SDS011;60413;55.658;37.498;2023-02-26T02:57:56;6.18;;;2.00;;
72422;SDS011;60413;55.658;37.498;2023-02-26T03:00:30;6.72;;;2.80;;
72422;SDS011;60413;55.658;37.498;2023-02-26T03:03:03;9.23;;;3.63;;
72422;SDS011;60413;55.658;37.498;2023-02-26T03:05:42;6.55;;;3.22;;
72422;SDS011;60413;55.658;37.498;2023-02-26T03:08:09;7.20;;;3.05;;
72422;SDS011;60413;55.658;37.498;2023-02-26T03:10:40;7.10;;;2.75;;
72422;SDS011;60413;55.658;37.498;2023-02-26T03:13:17;6.88;;;2.75;;
72422;SDS011;60413;55.658;37.498;2023-02-26T03:21:42;9.15;;;4.25;;
72422;SDS011;60413;55.658;37.498;2023-02-26T03:30:17;16.38;;;7.47;;
72422;SDS011;60413;55.658;37.498;2023-02-26T03:33:14;13.48;;;5.55;;
72422;SDS011;60413;55.658;37.498;2023-02-26T03:35:58;10.30;;;4.82;;
72422;SDS011;60413;55.658;37.498;2023-02-26T03:41:13;9.73;;;4.82;;
72422;SDS011;60413;55.658;37.498;2023-02-26T03:44:15;9.77;;;4.18;;
72422;SDS011;60413;55.658;37.498;2023-02-26T03:46:56;9.65;;;4.95;;
72422;SDS011;60413;55.658;37.498;2023-02-26T03:49:35;9.05;;;4.75;;
72422;SDS011;60413;55.658;37.498;2023-02-26T03:52:06;14.20;;;5.05;;
72422;SDS011;60413;55.658;37.498;2023-02-26T04:03:39;13.10;;;5.50;;
72422;SDS011;60413;55.658;37.498;2023-02-26T04:06:02;11.13;;;5.28;;
72422;SDS011;60413;55.658;37.498;2023-02-26T04:08:30;9.05;;;4.55;;
72422;SDS011;60413;55.658;37.498;2023-02-26T04:11:09;11.13;;;6.07;;
72422;SDS011;60413;55.658;37.498;2023-02-26T04:13:41;15.85;;;6.13;;
72422;SDS011;60413;55.658;37.498;2023-02-26T04:16:12;8.68;;;3.42;;
72422;SDS011;60413;55.658;37.498;2023-02-26T04:18:39;9.63;;;5.20;;
72422;SDS011;60413;55.658;37.498;2023-02-26T04:21:16;10.35;;;5.00;;
72422;SDS011;60413;55.658;37.498;2023-02-26T04:23:52;8.73;;;4.07;;
72422;SDS011;60413;55.658;37.498;2023-02-26T04:26:23;9.48;;;4.53;;
72422;SDS011;60413;55.658;37.498;2023-02-26T04:28:54;27.90;;;4.75;;
72422;SDS011;60413;55.658;37.498;2023-02-26T04:31:23;10.48;;;5.10;;
72422;SDS011;60413;55.658;37.498;2023-02-26T04:33:52;11.07;;;5.18;;
72422;SDS011;60413;55.658;37.498;2023-02-26T04:36:19;7.45;;;3.55;;
72422;SDS011;60413;55.658;37.498;2023-02-26T04:39:06;8.02;;;3.60;;
72422;SDS011;60413;55.658;37.498;2023-02-26T04:41:35;8.60;;;4.53;;
72422;SDS011;60413;55.658;37.498;2023-02-26T04:44:03;8.82;;;4.10;;
72422;SDS011;60413;55.658;37.498;2023-02-26T04:46:36;8.40;;;4.03;;
72422;SDS011;60413;55.658;37.498;2023-02-26T04:49:06;8.50;;;3.63;;
72422;SDS011;60413;55.658;37.498;2023-02-26T04:51:34;11.48;;;4.13;;
72422;SDS011;60413;55.658;37.498;2023-02-26T04:54:03;6.65;;;2.70;;
72422;SDS011;60413;55.658;37.498;2023-02-26T04:56:34;8.07;;;3.60;;
72422;SDS011;60413;55.658;37.498;2023-02-26T04:59:06;6.22;;;3.10;;
72422;SDS011;60413;55.658;37.498;2023-02-26T05:01:35;11.43;;;3.30;;
72422;SDS011;60413;55.658;37.498;2023-02-26T05:04:06;7.45;;;2.70;;
72422;SDS011;60413;55.658;37.498;2023-02-26T05:06:38;3.80;;;1.88;;
72422;SDS011;60413;55.658;37.498;2023-02-26T05:09:05;5.03;;;2.50;;
72422;SDS011;60413;55.658;37.498;2023-02-26T05:11:35;3.80;;;1.80;;
72422;SDS011;60413;55.658;37.498;2023-02-26T05:14:02;4.65;;;2.05;;
72422;SDS011;60413;55.658;37.498;2023-02-26T05:16:33;3.88;;;2.17;;
72422;SDS011;60413;55.658;37.498;2023-02-26T05:19:08;5.95;;;2.38;;
72422;SDS011;60413;55.658;37.498;2023-02-26T05:21:35;2.75;;;1.48;;
72422;SDS011;60413;55.658;37.498;2023-02-26T05:24:04;4.15;;;1.85;;
72422;SDS011;60413;55.658;37.498;2023-02-26T05:26:31;6.20;;;1.90;;
72422;SDS011;60413;55.658;37.498;2023-02-26T05:29:05;3.60;;;2.07;;
72422;SDS011;60413;55.658;37.498;2023-02-26T05:31:32;8.65;;;2.80;;
72422;SDS011;60413;55.658;37.498;2023-02-26T05:33:58;2.22;;;1.27;;
72422;SDS011;60413;55.658;37.498;2023-02-26T05:36:27;3.88;;;1.70;;
72422;SDS011;60413;55.658;37.498;2023-02-26T05:38:53;2.88;;;1.67;;
72422;SDS011;60413;55.658;37.498;2023-02-26T05:41:22;3.50;;;1.70;;
72422;SDS011;60413;55.658;37.498;2023-02-26T05:43:49;3.55;;;1.75;;
72422;SDS011;60413;55.658;37.498;2023-02-26T05:46:35;3.33;;;1.55;;
72422;SDS011;60413;55.658;37.498;2023-02-26T05:49:06;2.95;;;1.60;;
72422;SDS011;60413;55.658;37.498;2023-02-26T05:51:43;3.33;;;1.80;;
72422;SDS011;60413;55.658;37.498;2023-02-26T05:54:22;4.10;;;1.85;;
72422;SDS011;60413;55.658;37.498;2023-02-26T05:56:56;3.00;;;1.65;;
72422;SDS011;60413;55.658;37.498;2023-02-26T05:59:24;9.02;;;3.55;;
72422;SDS011;60413;55.658;37.498;2023-02-26T06:01:51;5.10;;;2.10;;
72422;SDS011;60413;55.658;37.498;2023-02-26T06:04:20;5.63;;;1.75;;
72422;SDS011;60413;55.658;37.498;2023-02-26T06:06:52;4.68;;;1.58;;
72422;SDS011;60413;55.658;37.498;2023-02-26T06:09:30;4.28;;;1.92;;
72422;SDS011;60413;55.658;37.498;2023-02-26T06:11:59;4.40;;;1.90;;
72422;SDS011;60413;55.658;37.498;2023-02-26T06:14:30;3.47;;;1.50;;
72422;SDS011;60413;55.658;37.498;2023-02-26T06:17:02;3.22;;;1.70;;
72422;SDS011;60413;55.658;37.498;2023-02-26T06:19:57;3.28;;;1.42;;
72422;SDS011;60413;55.658;37.498;2023-02-26T06:22:30;7.10;;;2.03;;
72422;SDS011;60413;55.658;37.498;2023-02-26T06:24:57;5.60;;;2.15;;
72422;SDS011;60413;55.658;37.498;2023-02-26T06:27:23;4.53;;;1.70;;
72422;SDS011;60413;55.658;37.498;2023-02-26T06:29:50;4.03;;;1.98;;
72422;SDS011;60413;55.658;37.498;2023-02-26T06:32:20;6.28;;;3.17;;
72422;SDS011;60413;55.658;37.498;2023-02-26T06:34:46;7.85;;;2.67;;
72422;SDS011;60413;55.658;37.498;2023-02-26T06:37:19;6.63;;;2.50;;
72422;SDS011;60413;55.658;37.498;2023-02-26T06:39:50;3.33;;;1.58;;
72422;SDS011;60413;55.658;37.498;2023-02-26T06:42:17;4.07;;;1.60;;
72422;SDS011;60413;55.658;37.498;2023-02-26T06:44:48;3.80;;;2.15;;
72422;SDS011;60413;55.658;37.498;2023-02-26T06:47:24;14.05;;;2.90;;
72422;SDS011;60413;55.658;37.498;2023-02-26T06:50:10;4.82;;;1.80;;
72422;SDS011;60413;55.658;37.498;2023-02-26T06:52:37;3.47;;;1.98;;
72422;SDS011;60413;55.658;37.498;2023-02-26T06:55:03;4.40;;;2.30;;
72422;SDS011;60413;55.658;37.498;2023-02-26T06:57:37;4.97;;;2.28;;
72422;SDS011;60413;55.658;37.498;2023-02-26T07:00:06;4.28;;;2.30;;
72422;SDS011;60413;55.658;37.498;2023-02-26T07:02:38;8.23;;;2.10;;
72422;SDS011;60413;55.658;37.498;2023-02-26T07:05:04;5.22;;;2.20;;
72422;SDS011;60413;55.658;37.498;2023-02-26T07:07:31;4.13;;;2.25;;
72422;SDS011;60413;55.658;37.498;2023-02-26T07:09:57;6.50;;;2.45;;
72422;SDS011;60413;55.658;37.498;2023-02-26T07:12:23;3.85;;;2.20;;
72422;SDS011;60413;55.658;37.498;2023-02-26T07:14:57;4.47;;;2.13;;
72422;SDS011;60413;55.658;37.498;2023-02-26T07:17:26;4.40;;;2.20;;
72422;SDS011;60413;55.658;37.498;2023-02-26T07:19:55;4.05;;;2.30;;
72422;SDS011;60413;55.658;37.498;2023-02-26T07:22:22;5.57;;;1.83;;
72422;SDS011;60413;55.658;37.498;2023-02-26T07:24:51;9.45;;;4.18;;
72422;SDS011;60413;55.658;37.498;2023-02-26T07:27:23;3.47;;;2.15;;
72422;SDS011;60413;55.658;37.498;2023-02-26T07:29:58;4.43;;;2.30;;
72422;SDS011;60413;55.658;37.498;2023-02-26T07:32:35;3.03;;;1.85;;
72422;SDS011;60413;55.658;37.498;2023-02-26T07:35:05;3.83;;;2.35;;
72422;SDS011;60413;55.658;37.498;2023-02-26T07:37:34;5.55;;;1.95;;
72422;SDS011;60413;55.658;37.498;2023-02-26T07:40:28;3.55;;;1.80;;
72422;SDS011;60413;55.658;37.498;2023-02-26T07:43:12;5.47;;;1.80;;
72422;SDS011;60413;55.658;37.498;2023-02-26T07:46:02;4.43;;;2.20;;
72422;SDS011;60413;55.658;37.498;2023-02-26T07:48:35;4.13;;;1.63;;
72422;SDS011;60413;55.658;37.498;2023-02-26T07:51:12;3.97;;;2.00;;
72422;SDS011;60413;55.658;37.498;2023-02-26T07:53:54;2.85;;;1.83;;
72422;SDS011;60413;55.658;37.498;2023-02-26T07:56:42;7.68;;;2.45;;
72422;SDS011;60413;55.658;37.498;2023-02-26T08:03:29;3.55;;;1.85;;
72422;SDS011;60413;55.658;37.498;2023-02-26T08:06:50;3.55;;;1.50;;
72422;SDS011;60413;55.658;37.498;2023-02-26T08:09:29;4.50;;;2.25;;
72422;SDS011;60413;55.658;37.498;2023-02-26T08:11:57;4.25;;;1.85;;
72422;SDS011;60413;55.658;37.498;2023-02-26T08:14:37;4.63;;;1.70;;
72422;SDS011;60413;55.658;37.498;2023-02-26T08:17:24;3.25;;;1.33;;
72422;SDS011;60413;55.658;37.498;2023-02-26T08:20:02;3.65;;;2.17;;
72422;SDS011;60413;55.658;37.498;2023-02-26T08:22:48;5.28;;;2.30;;
72422;SDS011;60413;55.658;37.498;2023-02-26T08:25:18;4.85;;;1.83;;
72422;SDS011;60413;55.658;37.498;2023-02-26T08:27:49;7.50;;;1.67;;
72422;SDS011;60413;55.658;37.498;2023-02-26T08:30:28;3.85;;;1.30;;
72422;SDS011;60413;55.658;37.498;2023-02-26T08:34:07;3.78;;;1.42;;
72422;SDS011;60413;55.658;37.498;2023-02-26T08:37:01;1.70;;;1.20;;
72422;SDS011;60413;55.658;37.498;2023-02-26T08:41:03;2.90;;;1.55;;
72422;SDS011;60413;55.658;37.498;2023-02-26T08:44:39;5.60;;;1.48;;
72422;SDS011;60413;55.658;37.498;2023-02-26T08:47:18;2.95;;;1.50;;
72422;SDS011;60413;55.658;37.498;2023-02-26T08:52:52;4.00;;;1.88;;
72422;SDS011;60413;55.658;37.498;2023-02-26T08:58:34;3.08;;;1.20;;
72422;SDS011;60413;55.658;37.498;2023-02-26T09:01:03;6.63;;;1.08;;
72422;SDS011;60413;55.658;37.498;2023-02-26T09:03:45;1.50;;;0.88;;
72422;SDS011;60413;55.658;37.498;2023-02-26T09:06:14;4.78;;;1.02;;
72422;SDS011;60413;55.658;37.498;2023-02-26T09:08:41;3.03;;;1.40;;
72422;SDS011;60413;55.658;37.498;2023-02-26T09:11:11;7.00;;;1.55;;
72422;SDS011;60413;55.658;37.498;2023-02-26T09:13:38;2.90;;;1.40;;
72422;SDS011;60413;55.658;37.498;2023-02-26T09:16:10;4.80;;;1.70;;
72422;SDS011;60413;55.658;37.498;2023-02-26T09:18:47;2.65;;;1.58;;
72422;SDS011;60413;55.658;37.498;2023-02-26T09:21:14;3.05;;;1.23;;
72422;SDS011;60413;55.658;37.498;2023-02-26T09:23:40;3.50;;;1.33;;
72422;SDS011;60413;55.658;37.498;2023-02-26T09:26:14;1.70;;;1.00;;
72422;SDS011;60413;55.658;37.498;2023-02-26T09:28:48;3.20;;;1.35;;
72422;SDS011;60413;55.658;37.498;2023-02-26T09:31:22;3.42;;;1.20;;
72422;SDS011;60413;55.658;37.498;2023-02-26T09:33:51;7.93;;;1.50;;
72422;SDS011;60413;55.658;37.498;2023-02-26T09:36:29;3.85;;;1.10;;
72422;SDS011;60413;55.658;37.498;2023-02-26T09:39:01;2.28;;;1.10;;
72422;SDS011;60413;55.658;37.498;2023-02-26T09:41:38;2.58;;;1.00;;
72422;SDS011;60413;55.658;37.498;2023-02-26T09:44:30;5.07;;;1.33;;
72422;SDS011;60413;55.658;37.498;2023-02-26T09:50:12;3.05;;;1.60;;
72422;SDS011;60413;55.658;37.498;2023-02-26T09:55:41;2.25;;;1.30;;
72422;SDS011;60413;55.658;37.498;2023-02-26T09:58:46;4.35;;;1.38;;
72422;SDS011;60413;55.658;37.498;2023-02-26T10:01:28;5.72;;;1.77;;
72422;SDS011;60413;55.658;37.498;2023-02-26T10:04:22;5.22;;;1.65;;
72422;SDS011;60413;55.658;37.498;2023-02-26T10:13:30;3.70;;;1.52;;
72422;SDS011;60413;55.658;37.498;2023-02-26T10:16:29;3.15;;;1.23;;
72422;SDS011;60413;55.658;37.498;2023-02-26T10:19:17;3.30;;;1.60;;
72422;SDS011;60413;55.658;37.498;2023-02-26T10:24:54;5.03;;;1.70;;
72422;SDS011;60413;55.658;37.498;2023-02-26T10:27:39;2.60;;;1.20;;
72422;SDS011;60413;55.658;37.498;2023-02-26T10:30:33;2.10;;;1.17;;
72422;SDS011;60413;55.658;37.498;2023-02-26T10:36:46;3.83;;;1.60;;
72422;SDS011;60413;55.658;37.498;2023-02-26T10:39:28;2.85;;;1.23;;
72422;SDS011;60413;55.658;37.498;2023-02-26T10:42:09;2.35;;;1.33;;
72422;SDS011;60413;55.658;37.498;2023-02-26T10:45:03;3.88;;;1.48;;
72422;SDS011;60413;55.658;37.498;2023-02-26T10:51:11;3.00;;;1.52;;
72422;SDS011;60413;55.658;37.498;2023-02-26T10:53:50;2.88;;;1.30;;
72422;SDS011;60413;55.658;37.498;2023-02-26T10:56:32;2.75;;;1.38;;
72422;SDS011;60413;55.658;37.498;2023-02-26T10:59:10;2.78;;;1.30;;
72422;SDS011;60413;55.658;37.498;2023-02-26T11:01:49;3.53;;;1.40;;
72422;SDS011;60413;55.658;37.498;2023-02-26T11:04:31;2.55;;;1.23;;
72422;SDS011;60413;55.658;37.498;2023-02-26T11:07:01;7.38;;;1.90;;
72422;SDS011;60413;55.658;37.498;2023-02-26T11:09:35;2.70;;;1.30;;
72422;SDS011;60413;55.658;37.498;2023-02-26T11:12:13;2.58;;;1.30;;
72422;SDS011;60413;55.658;37.498;2023-02-26T11:14:44;3.30;;;1.52;;
72422;SDS011;60413;55.658;37.498;2023-02-26T11:17:16;3.13;;;1.60;;
72422;SDS011;60413;55.658;37.498;2023-02-26T11:20:04;2.17;;;1.13;;
72422;SDS011;60413;55.658;37.498;2023-02-26T11:22:59;4.00;;;1.55;;
72422;SDS011;60413;55.658;37.498;2023-02-26T11:25:33;3.58;;;1.70;;
72422;SDS011;60413;55.658;37.498;2023-02-26T11:28:04;2.75;;;1.35;;
72422;SDS011;60413;55.658;37.498;2023-02-26T11:30:56;4.70;;;1.60;;
72422;SDS011;60413;55.658;37.498;2023-02-26T11:33:27;3.58;;;1.65;;
72422;SDS011;60413;55.658;37.498;2023-02-26T11:35:59;3.33;;;1.50;;
72422;SDS011;60413;55.658;37.498;2023-02-26T11:38:28;3.35;;;1.88;;
72422;SDS011;60413;55.658;37.498;2023-02-26T11:40:56;2.45;;;1.30;;
72422;SDS011;60413;55.658;37.498;2023-02-26T11:43:26;3.60;;;1.70;;
72422;SDS011;60413;55.658;37.498;2023-02-26T11:46:02;3.55;;;1.40;;
72422;SDS011;60413;55.658;37.498;2023-02-26T11:48:38;3.47;;;1.30;;
72422;SDS011;60413;55.658;37.498;2023-02-26T11:51:13;2.70;;;1.33;;
72422;SDS011;60413;55.658;37.498;2023-02-26T11:53:53;3.45;;;1.60;;
72422;SDS011;60413;55.658;37.498;2023-02-26T11:56:49;4.60;;;2.38;;
72422;SDS011;60413;55.658;37.498;2023-02-26T11:59:16;3.17;;;1.58;;
72422;SDS011;60413;55.658;37.498;2023-02-26T12:01:53;2.88;;;0.90;;
72422;SDS011;60413;55.658;37.498;2023-02-26T12:04:24;3.33;;;1.50;;
72422;SDS011;60413;55.658;37.498;2023-02-26T12:06:53;2.53;;;1.40;;
72422;SDS011;60413;55.658;37.498;2023-02-26T12:09:24;4.53;;;1.70;;
72422;SDS011;60413;55.658;37.498;2023-02-26T12:17:36;2.72;;;1.58;;
72422;SDS011;60413;55.658;37.498;2023-02-26T12:41:04;6.68;;;1.85;;
72422;SDS011;60413;55.658;37.498;2023-02-26T12:46:39;6.38;;;2.20;;
72422;SDS011;60413;55.658;37.498;2023-02-26T12:49:16;4.57;;;2.30;;
72422;SDS011;60413;55.658;37.498;2023-02-26T12:55:06;10.65;;;2.80;;
72422;SDS011;60413;55.658;37.498;2023-02-26T13:10:21;5.10;;;2.30;;
72422;SDS011;60413;55.658;37.498;2023-02-26T13:13:02;5.22;;;2.42;;
72422;SDS011;60413;55.658;37.498;2023-02-26T13:21:25;5.55;;;3.38;;
72422;SDS011;60413;55.658;37.498;2023-02-26T13:24:19;5.15;;;2.97;;
72422;SDS011;60413;55.658;37.498;2023-02-26T13:26:52;7.05;;;3.30;;
72422;SDS011;60413;55.658;37.498;2023-02-26T13:29:24;8.48;;;3.38;;
72422;SDS011;60413;55.658;37.498;2023-02-26T13:31:59;7.55;;;3.47;;
72422;SDS011;60413;55.658;37.498;2023-02-26T13:41:47;7.88;;;3.65;;
72422;SDS011;60413;55.658;37.498;2023-02-26T13:56:04;7.85;;;4.35;;
72422;SDS011;60413;55.658;37.498;2023-02-26T14:08:47;9.25;;;4.38;;
72422;SDS011;60413;55.658;37.498;2023-02-26T14:11:41;7.72;;;3.67;;
72422;SDS011;60413;55.658;37.498;2023-02-26T14:20:06;8.23;;;4.32;;
72422;SDS011;60413;55.658;37.498;2023-02-26T14:25:46;7.65;;;4.55;;
72422;SDS011;60413;55.658;37.498;2023-02-26T14:28:53;7.70;;;4.43;;
72422;SDS011;60413;55.658;37.498;2023-02-26T14:34:33;14.80;;;5.13;;
72422;SDS011;60413;55.658;37.498;2023-02-26T14:37:03;11.38;;;5.30;;
72422;SDS011;60413;55.658;37.498;2023-02-26T14:42:59;10.68;;;5.72;;
72422;SDS011;60413;55.658;37.498;2023-02-26T14:45:40;11.35;;;4.90;;
72422;SDS011;60413;55.658;37.498;2023-02-26T14:48:17;12.20;;;5.53;;
72422;SDS011;60413;55.658;37.498;2023-02-26T15:00:12;12.43;;;5.13;;
72422;SDS011;60413;55.658;37.498;2023-02-26T15:03:25;11.77;;;5.05;;
72422;SDS011;60413;55.658;37.498;2023-02-26T15:15:12;12.52;;;5.80;;
72422;SDS011;60413;55.658;37.498;2023-02-26T15:23:58;14.77;;;6.53;;
72422;SDS011;60413;55.658;37.498;2023-02-26T15:26:34;12.55;;;5.63;;
72422;SDS011;60413;55.658;37.498;2023-02-26T15:29:03;14.25;;;6.78;;
72422;SDS011;60413;55.658;37.498;2023-02-26T15:31:39;14.75;;;5.72;;
72422;SDS011;60413;55.658;37.498;2023-02-26T15:34:09;13.05;;;6.22;;
72422;SDS011;60413;55.658;37.498;2023-02-26T15:36:48;11.52;;;6.05;;
72422;SDS011;60413;55.658;37.498;2023-02-26T15:39:26;9.32;;;5.03;;
72422;SDS011;60413;55.658;37.498;2023-02-26T15:41:53;14.05;;;5.97;;
72422;SDS011;60413;55.658;37.498;2023-02-26T15:44:23;11.20;;;5.78;;
72422;SDS011;60413;55.658;37.498;2023-02-26T15:46:58;13.73;;;5.88;;
72422;SDS011;60413;55.658;37.498;2023-02-26T15:49:39;12.80;;;5.70;;
72422;SDS011;60413;55.658;37.498;2023-02-26T15:52:11;10.93;;;5.65;;
72422;SDS011;60413;55.658;37.498;2023-02-26T15:54:44;12.18;;;6.28;;
72422;SDS011;60413;55.658;37.498;2023-02-26T15:57:15;10.32;;;4.25;;
72422;SDS011;60413;55.658;37.498;2023-02-26T15:59:45;11.32;;;5.47;;
72422;SDS011;60413;55.658;37.498;2023-02-26T16:02:13;11.98;;;5.97;;
72422;SDS011;60413;55.658;37.498;2023-02-26T16:04:41;14.73;;;7.00;;
72422;SDS011;60413;55.658;37.498;2023-02-26T16:07:16;11.95;;;6.18;;
72422;SDS011;60413;55.658;37.498;2023-02-26T16:10:33;17.17;;;6.57;;
72422;SDS011;60413;55.658;37.498;2023-02-26T16:13:09;16.75;;;6.55;;
72422;SDS011;60413;55.658;37.498;2023-02-26T16:15:53;14.85;;;6.63;;
72422;SDS011;60413;55.658;37.498;2023-02-26T16:19:09;14.93;;;5.95;;
72422;SDS011;60413;55.658;37.498;2023-02-26T16:22:11;16.88;;;7.43;;
72422;SDS011;60413;55.658;37.498;2023-02-26T16:24:53;15.52;;;6.47;;
72422;SDS011;60413;55.658;37.498;2023-02-26T16:27:57;12.57;;;4.53;;
72422;SDS011;60413;55.658;37.498;2023-02-26T16:30:45;14.23;;;5.75;;
72422;SDS011;60413;55.658;37.498;2023-02-26T16:33:17;15.40;;;7.03;;
72422;SDS011;60413;55.658;37.498;2023-02-26T16:36:04;13.68;;;6.45;;
72422;SDS011;60413;55.658;37.498;2023-02-26T16:38:57;13.40;;;6.00;;
72422;SDS011;60413;55.658;37.498;2023-02-26T16:41:59;13.60;;;5.95;;
72422;SDS011;60413;55.658;37.498;2023-02-26T16:44:56;11.07;;;5.05;;
72422;SDS011;60413;55.658;37.498;2023-02-26T16:47:30;11.75;;;5.65;;
72422;SDS011;60413;55.658;37.498;2023-02-26T16:53:35;9.07;;;4.55;;
72422;SDS011;60413;55.658;37.498;2023-02-26T16:56:17;9.57;;;5.07;;
72422;SDS011;60413;55.658;37.498;2023-02-26T16:58:52;13.25;;;5.53;;
72422;SDS011;60413;55.658;37.498;2023-02-26T17:01:28;16.65;;;6.95;;
72422;SDS011;60413;55.658;37.498;2023-02-26T17:04:08;12.95;;;5.60;;
72422;SDS011;60413;55.658;37.498;2023-02-26T17:06:40;9.98;;;4.65;;
72422;SDS011;60413;55.658;37.498;2023-02-26T17:09:22;11.55;;;5.90;;
72422;SDS011;60413;55.658;37.498;2023-02-26T17:12:02;11.07;;;5.20;;
72422;SDS011;60413;55.658;37.498;2023-02-26T17:14:38;12.80;;;5.75;;
72422;SDS011;60413;55.658;37.498;2023-02-26T17:17:20;13.65;;;6.28;;
72422;SDS011;60413;55.658;37.498;2023-02-26T17:19:49;12.10;;;5.70;;
72422;SDS011;60413;55.658;37.498;2023-02-26T17:22:18;12.38;;;5.57;;
72422;SDS011;60413;55.658;37.498;2023-02-26T17:24:51;14.63;;;6.03;;
72422;SDS011;60413;55.658;37.498;2023-02-26T17:27:25;14.38;;;5.55;;
72422;SDS011;60413;55.658;37.498;2023-02-26T17:29:58;12.77;;;5.00;;
72422;SDS011;60413;55.658;37.498;2023-02-26T17:35:36;15.90;;;4.80;;
72422;SDS011;60413;55.658;37.498;2023-02-26T17:38:28;11.48;;;5.80;;
72422;SDS011;60413;55.658;37.498;2023-02-26T17:40:57;14.23;;;5.18;;
72422;SDS011;60413;55.658;37.498;2023-02-26T17:47:08;12.02;;;5.38;;
72422;SDS011;60413;55.658;37.498;2023-02-26T17:49:42;7.32;;;3.67;;
72422;SDS011;60413;55.658;37.498;2023-02-26T18:05:53;11.95;;;5.03;;
72422;SDS011;60413;55.658;37.498;2023-02-26T18:09:00;9.80;;;5.30;;
72422;SDS011;60413;55.658;37.498;2023-02-26T18:11:56;12.48;;;5.60;;
72422;SDS011;60413;55.658;37.498;2023-02-26T18:20:36;10.32;;;4.93;;
72422;SDS011;60413;55.658;37.498;2023-02-26T18:29:39;11.63;;;5.28;;
72422;SDS011;60413;55.658;37.498;2023-02-26T18:35:21;11.25;;;5.15;;
72422;SDS011;60413;55.658;37.498;2023-02-26T19:18:11;5.68;;;2.88;;
72422;SDS011;60413;55.658;37.498;2023-02-26T19:21:34;9.23;;;3.63;;
72422;SDS011;60413;55.658;37.498;2023-02-26T19:24:22;9.35;;;4.22;;
72422;SDS011;60413;55.658;37.498;2023-02-26T19:27:09;7.75;;;4.07;;
72422;SDS011;60413;55.658;37.498;2023-02-26T19:29:41;9.77;;;3.95;;
72422;SDS011;60413;55.658;37.498;2023-02-26T19:32:22;9.48;;;4.10;;
72422;SDS011;60413;55.658;37.498;2023-02-26T19:41:52;8.18;;;3.30;;
72422;SDS011;60413;55.658;37.498;2023-02-26T20:01:45;11.05;;;4.53;;
72422;SDS011;60413;55.658;37.498;2023-02-26T20:04:33;8.70;;;4.22;;
72422;SDS011;60413;55.658;37.498;2023-02-26T20:08:02;6.47;;;2.67;;
72422;SDS011;60413;55.658;37.498;2023-02-26T20:10:32;7.72;;;3.50;;
72422;SDS011;60413;55.658;37.498;2023-02-26T20:13:04;7.88;;;3.65;;
72422;SDS011;60413;55.658;37.498;2023-02-26T20:15:32;9.55;;;3.20;;
72422;SDS011;60413;55.658;37.498;2023-02-26T20:18:06;8.20;;;3.63;;
72422;SDS011;60413;55.658;37.498;2023-02-26T20:21:01;6.32;;;2.95;;
72422;SDS011;60413;55.658;37.498;2023-02-26T20:23:35;7.22;;;3.20;;
72422;SDS011;60413;55.658;37.498;2023-02-26T20:26:13;8.60;;;4.40;;
72422;SDS011;60413;55.658;37.498;2023-02-26T20:28:40;8.43;;;3.30;;
72422;SDS011;60413;55.658;37.498;2023-02-26T20:31:20;9.20;;;3.88;;
72422;SDS011;60413;55.658;37.498;2023-02-26T20:33:54;8.15;;;4.05;;
72422;SDS011;60413;55.658;37.498;2023-02-26T20:36:34;6.53;;;3.15;;
72422;SDS011;60413;55.658;37.498;2023-02-26T20:39:23;8.00;;;3.83;;
72422;SDS011;60413;55.658;37.498;2023-02-26T20:41:52;7.78;;;3.35;;
72422;SDS011;60413;55.658;37.498;2023-02-26T20:48:27;8.35;;;3.55;;
72422;SDS011;60413;55.658;37.498;2023-02-26T20:54:48;7.55;;;3.03;;
72422;SDS011;60413;55.658;37.498;2023-02-26T20:57:38;5.72;;;3.08;;
72422;SDS011;60413;55.658;37.498;2023-02-26T21:00:06;7.85;;;3.03;;
72422;SDS011;60413;55.658;37.498;2023-02-26T21:02:36;7.80;;;3.33;;
72422;SDS011;60413;55.658;37.498;2023-02-26T21:05:15;5.78;;;2.88;;
72422;SDS011;60413;55.658;37.498;2023-02-26T21:08:05;5.05;;;2.60;;
72422;SDS011;60413;55.658;37.498;2023-02-26T21:10:34;8.27;;;3.47;;
72422;SDS011;60413;55.658;37.498;2023-02-26T21:13:23;5.63;;;3.05;;
72422;SDS011;60413;55.658;37.498;2023-02-26T21:16:11;6.25;;;3.33;;
72422;SDS011;60413;55.658;37.498;2023-02-26T21:18:55;6.65;;;3.13;;
72422;SDS011;60413;55.658;37.498;2023-02-26T21:21:32;5.70;;;3.13;;
72422;SDS011;60413;55.658;37.498;2023-02-26T21:24:24;7.35;;;3.22;;